sensor_id;sensor_type;location;lat;lon;timestamp;temperature;humidity
72786;DHT22;60902;53.876;10.674;2023-05-10T14:11:09;13.80;68.70
72786;DHT22;60902;53.876;10.674;2023-05-10T14:11:21;13.80;68.70
72786;DHT22;60902;53.876;10.674;2023-05-10T14:11:32;13.80;68.70
72786;DHT22;60902;53.876;10.674;2023-05-10T14:11:43;13.80;68.70
72786;DHT22;60902;53.876;10.674;2023-05-10T14:11:55;13.80;68.70
72786;DHT22;60902;53.876;10.674;2023-05-10T14:12:06;13.80;68.70
72786;DHT22;60902;53.876;10.674;2023-05-10T14:12:17;13.80;68.60
72786;DHT22;60902;53.876;10.674;2023-05-10T14:12:30;13.80;68.70
72786;DHT22;60902;53.876;10.674;2023-05-10T14:12:41;13.80;68.70
72786;DHT22;60902;53.876;10.674;2023-05-10T14:12:52;13.80;68.60
72786;DHT22;60902;53.876;10.674;2023-05-10T14:13:02;13.80;68.60
72786;DHT22;60902;53.876;10.674;2023-05-10T14:13:13;13.80;68.60
72786;DHT22;60902;53.876;10.674;2023-05-10T14:13:25;13.80;68.60
72786;DHT22;60902;53.876;10.674;2023-05-10T14:13:36;13.80;68.60
72786;DHT22;60902;53.876;10.674;2023-05-10T14:13:48;13.80;68.60
72786;DHT22;60902;53.876;10.674;2023-05-10T14:13:59;13.80;68.60
72786;DHT22;60902;53.876;10.674;2023-05-10T14:14:10;13.80;68.60
72786;DHT22;60902;53.876;10.674;2023-05-10T14:14:21;13.80;68.60
72786;DHT22;60902;53.876;10.674;2023-05-10T14:14:32;13.80;68.60
72786;DHT22;60902;53.876;10.674;2023-05-10T14:14:42;13.80;68.60
72786;DHT22;60902;53.876;10.674;2023-05-10T14:14:55;13.80;68.60
72786;DHT22;60902;53.876;10.674;2023-05-10T14:15:07;13.70;68.50
72786;DHT22;60902;53.876;10.674;2023-05-10T14:15:18;13.80;68.60
72786;DHT22;60902;53.876;10.674;2023-05-10T14:15:29;13.80;68.60
72786;DHT22;60902;53.876;10.674;2023-05-10T14:15:40;13.80;68.60
72786;DHT22;60902;53.876;10.674;2023-05-10T14:15:52;13.80;68.60
72786;DHT22;60902;53.876;10.674;2023-05-10T14:16:04;13.80;68.60
72786;DHT22;60902;53.876;10.674;2023-05-10T14:16:19;13.80;68.60
72786;DHT22;60902;53.876;10.674;2023-05-10T14:16:30;13.80;68.50
72786;DHT22;60902;53.876;10.674;2023-05-10T14:16:43;13.80;68.50
72786;DHT22;60902;53.876;10.674;2023-05-10T14:16:54;13.80;68.60
72786;DHT22;60902;53.876;10.674;2023-05-10T14:17:05;13.80;68.60
72786;DHT22;60902;53.876;10.674;2023-05-10T14:17:16;13.80;68.60
72786;DHT22;60902;53.876;10.674;2023-05-10T14:17:28;13.80;68.60
72786;DHT22;60902;53.876;10.674;2023-05-10T14:17:39;13.80;68.50
72786;DHT22;60902;53.876;10.674;2023-05-10T14:17:53;13.80;68.60
72786;DHT22;60902;53.876;10.674;2023-05-10T14:18:12;13.80;68.60
72786;DHT22;60902;53.876;10.674;2023-05-10T14:18:23;13.80;68.60
72786;DHT22;60902;53.876;10.674;2023-05-10T14:18:36;13.80;68.50
72786;DHT22;60902;53.876;10.674;2023-05-10T14:18:47;13.80;68.50
72786;DHT22;60902;53.876;10.674;2023-05-10T14:18:58;13.80;68.60
72786;DHT22;60902;53.876;10.674;2023-05-10T14:19:09;13.80;68.50
72786;DHT22;60902;53.876;10.674;2023-05-10T14:19:20;13.80;68.60
72786;DHT22;60902;53.876;10.674;2023-05-10T14:19:32;13.80;68.50
72786;DHT22;60902;53.876;10.674;2023-05-10T14:19:44;13.80;68.50
72786;DHT22;60902;53.876;10.674;2023-05-10T14:19:55;13.80;68.50
72786;DHT22;60902;53.876;10.674;2023-05-10T14:20:07;13.80;68.50
72786;DHT22;60902;53.876;10.674;2023-05-10T14:20:18;13.80;68.50
72786;DHT22;60902;53.876;10.674;2023-05-10T14:20:29;13.80;68.50
72786;DHT22;60902;53.876;10.674;2023-05-10T14:20:40;13.80;68.50
72786;DHT22;60902;53.876;10.674;2023-05-10T14:20:53;13.80;68.50
72786;DHT22;60902;53.876;10.674;2023-05-10T14:21:04;13.80;68.50
72786;DHT22;60902;53.876;10.674;2023-05-10T14:21:14;13.80;68.50
72786;DHT22;60902;53.876;10.674;2023-05-10T14:21:25;13.80;68.50
72786;DHT22;60902;53.876;10.674;2023-05-10T14:21:37;13.80;68.50
72786;DHT22;60902;53.876;10.674;2023-05-10T14:21:49;13.80;68.60
72786;DHT22;60902;53.876;10.674;2023-05-10T14:22:01;13.80;68.50
72786;DHT22;60902;53.876;10.674;2023-05-10T14:22:13;13.80;68.50
72786;DHT22;60902;53.876;10.674;2023-05-10T14:22:24;13.80;68.50
72786;DHT22;60902;53.876;10.674;2023-05-10T14:22:34;13.80;68.50
72786;DHT22;60902;53.876;10.674;2023-05-10T14:22:45;13.80;68.50
72786;DHT22;60902;53.876;10.674;2023-05-10T14:22:57;13.80;68.60
72786;DHT22;60902;53.876;10.674;2023-05-10T14:23:08;13.80;68.60
72786;DHT22;60902;53.876;10.674;2023-05-10T14:23:21;13.80;68.60
72786;DHT22;60902;53.876;10.674;2023-05-10T14:23:34;13.80;68.70
72786;DHT22;60902;53.876;10.674;2023-05-10T14:23:45;13.80;68.60
72786;DHT22;60902;53.876;10.674;2023-05-10T14:23:57;13.80;68.60
72786;DHT22;60902;53.876;10.674;2023-05-10T14:24:08;13.80;68.60
72786;DHT22;60902;53.876;10.674;2023-05-10T14:24:19;13.80;68.60
72786;DHT22;60902;53.876;10.674;2023-05-10T14:24:30;13.80;68.70
72786;DHT22;60902;53.876;10.674;2023-05-10T14:24:42;13.80;68.60
72786;DHT22;60902;53.876;10.674;2023-05-10T14:24:54;13.80;68.60
72786;DHT22;60902;53.876;10.674;2023-05-10T14:25:07;13.80;68.60
72786;DHT22;60902;53.876;10.674;2023-05-10T14:25:18;13.80;68.60
72786;DHT22;60902;53.876;10.674;2023-05-10T14:25:32;13.80;68.60
72786;DHT22;60902;53.876;10.674;2023-05-10T14:25:43;13.80;68.60
72786;DHT22;60902;53.876;10.674;2023-05-10T14:25:54;13.80;68.60
72786;DHT22;60902;53.876;10.674;2023-05-10T14:26:05;13.80;68.70
72786;DHT22;60902;53.876;10.674;2023-05-10T14:26:19;13.80;68.60
72786;DHT22;60902;53.876;10.674;2023-05-10T14:26:31;13.80;68.60
72786;DHT22;60902;53.876;10.674;2023-05-10T14:26:42;13.80;68.60
72786;DHT22;60902;53.876;10.674;2023-05-10T14:26:53;13.80;68.60
72786;DHT22;60902;53.876;10.674;2023-05-10T14:27:04;13.80;68.60
72786;DHT22;60902;53.876;10.674;2023-05-10T14:27:16;13.80;68.60
72786;DHT22;60902;53.876;10.674;2023-05-10T14:27:29;13.80;68.60
72786;DHT22;60902;53.876;10.674;2023-05-10T14:27:40;13.80;68.70
72786;DHT22;60902;53.876;10.674;2023-05-10T14:27:51;13.80;68.60
72786;DHT22;60902;53.876;10.674;2023-05-10T14:28:05;13.80;68.60
72786;DHT22;60902;53.876;10.674;2023-05-10T14:28:15;13.80;68.60
72786;DHT22;60902;53.876;10.674;2023-05-10T14:28:27;13.80;68.60
72786;DHT22;60902;53.876;10.674;2023-05-10T14:28:39;13.80;68.60
72786;DHT22;60902;53.876;10.674;2023-05-10T14:28:50;13.80;68.60
72786;DHT22;60902;53.876;10.674;2023-05-10T14:29:02;13.80;68.60
72786;DHT22;60902;53.876;10.674;2023-05-10T14:29:12;13.80;68.60
72786;DHT22;60902;53.876;10.674;2023-05-10T14:29:24;13.80;68.60
72786;DHT22;60902;53.876;10.674;2023-05-10T14:29:35;13.80;68.70
72786;DHT22;60902;53.876;10.674;2023-05-10T14:29:46;13.80;68.70
72786;DHT22;60902;53.876;10.674;2023-05-10T14:29:58;13.80;68.70
72786;DHT22;60902;53.876;10.674;2023-05-10T14:30:10;13.80;68.70
72786;DHT22;60902;53.876;10.674;2023-05-10T14:30:22;13.80;68.70
72786;DHT22;60902;53.876;10.674;2023-05-10T14:30:33;13.80;68.70
72786;DHT22;60902;53.876;10.674;2023-05-10T14:30:44;13.80;68.70
72786;DHT22;60902;53.876;10.674;2023-05-10T14:30:55;13.80;68.70
72786;DHT22;60902;53.876;10.674;2023-05-10T14:31:08;13.80;68.70
72786;DHT22;60902;53.876;10.674;2023-05-10T14:31:18;13.80;68.70
72786;DHT22;60902;53.876;10.674;2023-05-10T14:31:31;13.80;68.70
72786;DHT22;60902;53.876;10.674;2023-05-10T14:31:42;13.80;68.70
72786;DHT22;60902;53.876;10.674;2023-05-10T14:31:53;13.80;68.70
72786;DHT22;60902;53.876;10.674;2023-05-10T14:32:05;13.80;69.30
72786;DHT22;60902;53.876;10.674;2023-05-10T14:32:16;13.80;68.90
72786;DHT22;60902;53.876;10.674;2023-05-10T14:32:27;13.80;68.70
72786;DHT22;60902;53.876;10.674;2023-05-10T14:32:38;13.80;69.70
72786;DHT22;60902;53.876;10.674;2023-05-10T14:32:49;13.80;68.70
72786;DHT22;60902;53.876;10.674;2023-05-10T14:33:01;13.80;68.80
72786;DHT22;60902;53.876;10.674;2023-05-10T14:33:13;13.80;68.70
72786;DHT22;60902;53.876;10.674;2023-05-10T14:33:24;13.80;68.80
72786;DHT22;60902;53.876;10.674;2023-05-10T14:33:35;13.80;68.80
72786;DHT22;60902;53.876;10.674;2023-05-10T14:33:46;13.80;68.70
72786;DHT22;60902;53.876;10.674;2023-05-10T14:33:57;13.80;68.80
72786;DHT22;60902;53.876;10.674;2023-05-10T14:34:09;13.80;68.80
72786;DHT22;60902;53.876;10.674;2023-05-10T14:34:20;13.80;68.80
72786;DHT22;60902;53.876;10.674;2023-05-10T14:34:31;13.80;68.80
72786;DHT22;60902;53.876;10.674;2023-05-10T14:34:42;13.80;68.80
72786;DHT22;60902;53.876;10.674;2023-05-10T14:34:53;13.80;68.80
72786;DHT22;60902;53.876;10.674;2023-05-10T14:35:04;13.80;68.80
72786;DHT22;60902;53.876;10.674;2023-05-10T14:35:16;13.80;68.80
72786;DHT22;60902;53.876;10.674;2023-05-10T14:35:29;13.80;68.80
72786;DHT22;60902;53.876;10.674;2023-05-10T14:35:41;13.80;68.80
72786;DHT22;60902;53.876;10.674;2023-05-10T14:35:53;13.80;68.80
72786;DHT22;60902;53.876;10.674;2023-05-10T14:36:05;13.80;68.80
72786;DHT22;60902;53.876;10.674;2023-05-10T14:36:17;13.80;68.80
72786;DHT22;60902;53.876;10.674;2023-05-10T14:36:28;13.80;68.80
72786;DHT22;60902;53.876;10.674;2023-05-10T14:36:40;13.80;68.80
72786;DHT22;60902;53.876;10.674;2023-05-10T14:36:51;13.80;68.80
72786;DHT22;60902;53.876;10.674;2023-05-10T14:37:02;13.80;68.80
72786;DHT22;60902;53.876;10.674;2023-05-10T14:37:13;13.80;68.70
72786;DHT22;60902;53.876;10.674;2023-05-10T14:37:24;13.80;68.80
72786;DHT22;60902;53.876;10.674;2023-05-10T14:37:35;13.80;68.80
72786;DHT22;60902;53.876;10.674;2023-05-10T14:37:47;13.80;68.80
72786;DHT22;60902;53.876;10.674;2023-05-10T14:37:58;13.80;68.80
72786;DHT22;60902;53.876;10.674;2023-05-10T14:38:09;13.80;68.80
72786;DHT22;60902;53.876;10.674;2023-05-10T14:38:21;13.80;68.80
72786;DHT22;60902;53.876;10.674;2023-05-10T14:38:32;13.80;68.70
72786;DHT22;60902;53.876;10.674;2023-05-10T14:38:43;13.80;68.80
72786;DHT22;60902;53.876;10.674;2023-05-10T14:38:55;13.80;68.80
72786;DHT22;60902;53.876;10.674;2023-05-10T14:39:06;13.80;68.80
72786;DHT22;60902;53.876;10.674;2023-05-10T14:39:17;13.80;68.80
72786;DHT22;60902;53.876;10.674;2023-05-10T14:39:28;13.80;68.70
72786;DHT22;60902;53.876;10.674;2023-05-10T14:39:40;13.80;68.70
72786;DHT22;60902;53.876;10.674;2023-05-10T14:39:52;13.80;68.80
72786;DHT22;60902;53.876;10.674;2023-05-10T14:40:06;13.80;68.80
72786;DHT22;60902;53.876;10.674;2023-05-10T14:40:17;13.80;68.80
72786;DHT22;60902;53.876;10.674;2023-05-10T14:40:29;13.80;68.70
72786;DHT22;60902;53.876;10.674;2023-05-10T14:40:40;13.80;68.70
72786;DHT22;60902;53.876;10.674;2023-05-10T14:40:51;13.80;68.80
72786;DHT22;60902;53.876;10.674;2023-05-10T14:41:02;13.80;68.80
72786;DHT22;60902;53.876;10.674;2023-05-10T14:41:13;13.80;68.80
72786;DHT22;60902;53.876;10.674;2023-05-10T14:41:26;13.80;68.80
72786;DHT22;60902;53.876;10.674;2023-05-10T14:41:38;13.80;68.80
72786;DHT22;60902;53.876;10.674;2023-05-10T14:41:51;13.80;68.80
72786;DHT22;60902;53.876;10.674;2023-05-10T14:42:02;13.80;68.80
72786;DHT22;60902;53.876;10.674;2023-05-10T14:42:13;13.80;68.80
72786;DHT22;60902;53.876;10.674;2023-05-10T14:42:24;13.80;68.80
72786;DHT22;60902;53.876;10.674;2023-05-10T14:42:35;13.80;68.80
72786;DHT22;60902;53.876;10.674;2023-05-10T14:42:46;13.80;68.80
72786;DHT22;60902;53.876;10.674;2023-05-10T14:42:58;13.80;68.80
72786;DHT22;60902;53.876;10.674;2023-05-10T14:43:09;13.80;68.80
72786;DHT22;60902;53.876;10.674;2023-05-10T14:43:20;13.80;68.80
72786;DHT22;60902;53.876;10.674;2023-05-10T14:43:31;13.80;68.80
72786;DHT22;60902;53.876;10.674;2023-05-10T14:43:41;13.80;68.80
72786;DHT22;60902;53.876;10.674;2023-05-10T14:43:52;13.80;68.80
72786;DHT22;60902;53.876;10.674;2023-05-10T14:44:04;13.80;68.80
72786;DHT22;60902;53.876;10.674;2023-05-10T14:44:15;13.80;68.80
72786;DHT22;60902;53.876;10.674;2023-05-10T14:44:27;13.80;68.80
72786;DHT22;60902;53.876;10.674;2023-05-10T14:44:38;13.80;68.90
72786;DHT22;60902;53.876;10.674;2023-05-10T14:44:49;13.80;68.80
72786;DHT22;60902;53.876;10.674;2023-05-10T14:44:59;13.70;68.80
72786;DHT22;60902;53.876;10.674;2023-05-10T14:45:12;13.80;68.80
72786;DHT22;60902;53.876;10.674;2023-05-10T14:45:23;13.80;68.80
72786;DHT22;60902;53.876;10.674;2023-05-10T14:45:34;13.80;68.90
72786;DHT22;60902;53.876;10.674;2023-05-10T14:45:45;13.80;68.90
72786;DHT22;60902;53.876;10.674;2023-05-10T14:45:57;13.80;68.90
72786;DHT22;60902;53.876;10.674;2023-05-10T14:46:08;13.80;68.80
72786;DHT22;60902;53.876;10.674;2023-05-10T14:46:19;13.80;68.90
72786;DHT22;60902;53.876;10.674;2023-05-10T14:46:31;13.80;68.90
72786;DHT22;60902;53.876;10.674;2023-05-10T14:46:42;13.80;69.80
72786;DHT22;60902;53.876;10.674;2023-05-10T14:46:53;13.80;68.90
72786;DHT22;60902;53.876;10.674;2023-05-10T14:47:04;13.80;68.90
72786;DHT22;60902;53.876;10.674;2023-05-10T14:47:16;13.80;68.90
72786;DHT22;60902;53.876;10.674;2023-05-10T14:47:27;13.80;68.90
72786;DHT22;60902;53.876;10.674;2023-05-10T14:47:37;13.80;68.90
72786;DHT22;60902;53.876;10.674;2023-05-10T14:47:48;13.80;68.90
72786;DHT22;60902;53.876;10.674;2023-05-10T14:48:01;13.80;68.90
72786;DHT22;60902;53.876;10.674;2023-05-10T14:48:15;13.80;68.90
72786;DHT22;60902;53.876;10.674;2023-05-10T14:48:27;13.80;68.90
72786;DHT22;60902;53.876;10.674;2023-05-10T14:48:38;13.80;68.90
72786;DHT22;60902;53.876;10.674;2023-05-10T14:48:49;13.80;68.90
72786;DHT22;60902;53.876;10.674;2023-05-10T14:49:01;13.80;68.90
72786;DHT22;60902;53.876;10.674;2023-05-10T14:49:12;13.80;68.90
72786;DHT22;60902;53.876;10.674;2023-05-10T14:49:23;13.80;68.90
72786;DHT22;60902;53.876;10.674;2023-05-10T14:49:36;13.80;68.90
72786;DHT22;60902;53.876;10.674;2023-05-10T14:49:46;13.80;68.90
72786;DHT22;60902;53.876;10.674;2023-05-10T14:49:57;13.90;69.00
72786;DHT22;60902;53.876;10.674;2023-05-10T14:50:09;13.80;68.90
72786;DHT22;60902;53.876;10.674;2023-05-10T14:50:21;13.80;68.90
72786;DHT22;60902;53.876;10.674;2023-05-10T14:50:32;13.80;68.90
72786;DHT22;60902;53.876;10.674;2023-05-10T14:50:44;13.80;68.90
72786;DHT22;60902;53.876;10.674;2023-05-10T14:50:55;13.80;69.00
72786;DHT22;60902;53.876;10.674;2023-05-10T14:51:06;13.80;69.00
72786;DHT22;60902;53.876;10.674;2023-05-10T14:51:17;13.80;69.90
72786;DHT22;60902;53.876;10.674;2023-05-10T14:51:32;13.80;69.00
72786;DHT22;60902;53.876;10.674;2023-05-10T14:51:43;13.80;69.00
72786;DHT22;60902;53.876;10.674;2023-05-10T14:51:55;13.80;69.00
72786;DHT22;60902;53.876;10.674;2023-05-10T14:52:06;13.80;69.00
72786;DHT22;60902;53.876;10.674;2023-05-10T14:52:17;13.80;69.00
72786;DHT22;60902;53.876;10.674;2023-05-10T14:52:28;13.80;69.00
72786;DHT22;60902;53.876;10.674;2023-05-10T14:52:39;13.80;69.00
72786;DHT22;60902;53.876;10.674;2023-05-10T14:52:51;13.80;69.00
72786;DHT22;60902;53.876;10.674;2023-05-10T14:53:02;13.80;68.90
72786;DHT22;60902;53.876;10.674;2023-05-10T14:53:13;13.90;69.00
72786;DHT22;60902;53.876;10.674;2023-05-10T14:53:24;13.80;69.00
72786;DHT22;60902;53.876;10.674;2023-05-10T14:53:34;13.80;68.90
72786;DHT22;60902;53.876;10.674;2023-05-10T14:53:45;13.80;69.00
72786;DHT22;60902;53.876;10.674;2023-05-10T14:53:57;13.80;68.90
72786;DHT22;60902;53.876;10.674;2023-05-10T14:54:08;13.80;68.90
72786;DHT22;60902;53.876;10.674;2023-05-10T14:54:19;13.80;69.00
72786;DHT22;60902;53.876;10.674;2023-05-10T14:54:31;13.80;69.00
72786;DHT22;60902;53.876;10.674;2023-05-10T14:54:43;13.80;68.90
72786;DHT22;60902;53.876;10.674;2023-05-10T14:54:54;13.80;68.90
72786;DHT22;60902;53.876;10.674;2023-05-10T14:55:09;13.80;68.90
72786;DHT22;60902;53.876;10.674;2023-05-10T14:55:20;13.80;69.00
72786;DHT22;60902;53.876;10.674;2023-05-10T14:55:31;13.80;69.00
72786;DHT22;60902;53.876;10.674;2023-05-10T14:55:43;13.80;69.00
72786;DHT22;60902;53.876;10.674;2023-05-10T14:55:53;13.80;69.00
72786;DHT22;60902;53.876;10.674;2023-05-10T14:56:05;13.80;69.00
72786;DHT22;60902;53.876;10.674;2023-05-10T14:56:15;13.80;69.00
72786;DHT22;60902;53.876;10.674;2023-05-10T14:56:29;13.80;69.00
72786;DHT22;60902;53.876;10.674;2023-05-10T14:56:40;13.80;69.00
72786;DHT22;60902;53.876;10.674;2023-05-10T14:56:51;13.80;69.00
72786;DHT22;60902;53.876;10.674;2023-05-10T14:57:02;13.80;69.00
72786;DHT22;60902;53.876;10.674;2023-05-10T14:57:13;13.80;68.90
72786;DHT22;60902;53.876;10.674;2023-05-10T14:57:24;13.80;68.90
72786;DHT22;60902;53.876;10.674;2023-05-10T14:57:36;13.80;69.90
72786;DHT22;60902;53.876;10.674;2023-05-10T14:57:47;13.80;69.00
72786;DHT22;60902;53.876;10.674;2023-05-10T14:58:01;13.80;69.00
72786;DHT22;60902;53.876;10.674;2023-05-10T14:58:13;13.80;69.00
72786;DHT22;60902;53.876;10.674;2023-05-10T14:58:24;13.80;69.00
72786;DHT22;60902;53.876;10.674;2023-05-10T14:58:36;13.80;68.90
72786;DHT22;60902;53.876;10.674;2023-05-10T14:58:47;13.80;68.90
72786;DHT22;60902;53.876;10.674;2023-05-10T14:58:58;13.80;68.90
72786;DHT22;60902;53.876;10.674;2023-05-10T14:59:09;13.80;68.90
72786;DHT22;60902;53.876;10.674;2023-05-10T14:59:20;13.80;69.00
72786;DHT22;60902;53.876;10.674;2023-05-10T14:59:31;13.80;68.90
72786;DHT22;60902;53.876;10.674;2023-05-10T14:59:43;13.80;68.90
72786;DHT22;60902;53.876;10.674;2023-05-10T14:59:54;13.80;68.90
72786;DHT22;60902;53.876;10.674;2023-05-10T15:00:06;13.80;68.90
72786;DHT22;60902;53.876;10.674;2023-05-10T15:00:18;13.80;68.90
72786;DHT22;60902;53.876;10.674;2023-05-10T15:00:30;13.80;68.90
72786;DHT22;60902;53.876;10.674;2023-05-10T15:00:41;13.80;68.90
72786;DHT22;60902;53.876;10.674;2023-05-10T15:00:54;13.80;68.90
72786;DHT22;60902;53.876;10.674;2023-05-10T15:01:05;13.80;69.00
72786;DHT22;60902;53.876;10.674;2023-05-10T15:01:16;13.80;68.90
72786;DHT22;60902;53.876;10.674;2023-05-10T15:01:26;13.80;68.90
72786;DHT22;60902;53.876;10.674;2023-05-10T15:01:38;13.80;68.90
72786;DHT22;60902;53.876;10.674;2023-05-10T15:01:51;13.80;69.00
72786;DHT22;60902;53.876;10.674;2023-05-10T15:02:02;13.80;68.90
72786;DHT22;60902;53.876;10.674;2023-05-10T15:02:14;13.80;69.00
72786;DHT22;60902;53.876;10.674;2023-05-10T15:02:26;13.80;69.00
72786;DHT22;60902;53.876;10.674;2023-05-10T15:02:37;13.80;68.90
72786;DHT22;60902;53.876;10.674;2023-05-10T15:02:48;13.80;68.90
72786;DHT22;60902;53.876;10.674;2023-05-10T15:02:59;13.80;68.90
72786;DHT22;60902;53.876;10.674;2023-05-10T15:03:11;13.80;68.90
72786;DHT22;60902;53.876;10.674;2023-05-10T15:03:23;13.80;68.90
72786;DHT22;60902;53.876;10.674;2023-05-10T15:03:34;13.80;68.90
72786;DHT22;60902;53.876;10.674;2023-05-10T15:03:45;13.80;68.90
72786;DHT22;60902;53.876;10.674;2023-05-10T15:03:56;13.80;68.90
72786;DHT22;60902;53.876;10.674;2023-05-10T15:04:07;13.80;68.90
72786;DHT22;60902;53.876;10.674;2023-05-10T15:04:17;13.80;68.90
72786;DHT22;60902;53.876;10.674;2023-05-10T15:04:28;13.80;68.90
72786;DHT22;60902;53.876;10.674;2023-05-10T15:04:40;13.80;68.90
72786;DHT22;60902;53.876;10.674;2023-05-10T15:04:51;13.80;68.80
72786;DHT22;60902;53.876;10.674;2023-05-10T15:05:02;13.80;68.90
72786;DHT22;60902;53.876;10.674;2023-05-10T15:05:14;13.80;68.90
72786;DHT22;60902;53.876;10.674;2023-05-10T15:05:24;13.80;68.80
72786;DHT22;60902;53.876;10.674;2023-05-10T15:05:35;13.80;68.90
72786;DHT22;60902;53.876;10.674;2023-05-10T15:05:48;13.80;68.80
72786;DHT22;60902;53.876;10.674;2023-05-10T15:05:59;13.80;68.90
72786;DHT22;60902;53.876;10.674;2023-05-10T15:06:10;13.80;68.90
72786;DHT22;60902;53.876;10.674;2023-05-10T15:06:23;13.80;69.10
72786;DHT22;60902;53.876;10.674;2023-05-10T15:06:35;13.80;68.80
72786;DHT22;60902;53.876;10.674;2023-05-10T15:06:47;13.80;68.90
72786;DHT22;60902;53.876;10.674;2023-05-10T15:06:58;13.80;68.80
72786;DHT22;60902;53.876;10.674;2023-05-10T15:07:10;13.80;68.90
72786;DHT22;60902;53.876;10.674;2023-05-10T15:07:24;13.80;68.90
72786;DHT22;60902;53.876;10.674;2023-05-10T15:07:35;13.80;68.90
72786;DHT22;60902;53.876;10.674;2023-05-10T15:07:46;13.80;68.90
72786;DHT22;60902;53.876;10.674;2023-05-10T15:07:58;13.80;68.90
72786;DHT22;60902;53.876;10.674;2023-05-10T15:08:09;13.80;68.80
72786;DHT22;60902;53.876;10.674;2023-05-10T15:08:20;13.80;68.80
72786;DHT22;60902;53.876;10.674;2023-05-10T15:08:31;13.80;68.90
72786;DHT22;60902;53.876;10.674;2023-05-10T15:08:42;13.80;68.80
72786;DHT22;60902;53.876;10.674;2023-05-10T15:08:54;13.80;68.80
72786;DHT22;60902;53.876;10.674;2023-05-10T15:09:05;13.80;68.90
72786;DHT22;60902;53.876;10.674;2023-05-10T15:09:16;13.80;68.90
72786;DHT22;60902;53.876;10.674;2023-05-10T15:09:27;13.80;68.90
72786;DHT22;60902;53.876;10.674;2023-05-10T15:09:38;13.80;68.90
72786;DHT22;60902;53.876;10.674;2023-05-10T15:09:49;13.80;68.90
72786;DHT22;60902;53.876;10.674;2023-05-10T15:10:02;13.80;68.90
72786;DHT22;60902;53.876;10.674;2023-05-10T15:10:13;13.80;68.90
72786;DHT22;60902;53.876;10.674;2023-05-10T15:10:24;13.80;68.90
72786;DHT22;60902;53.876;10.674;2023-05-10T15:10:35;13.80;68.90
72786;DHT22;60902;53.876;10.674;2023-05-10T15:10:47;13.80;68.80
72786;DHT22;60902;53.876;10.674;2023-05-10T15:10:58;13.80;68.90
72786;DHT22;60902;53.876;10.674;2023-05-10T15:11:10;13.80;68.90
72786;DHT22;60902;53.876;10.674;2023-05-10T15:11:21;13.80;68.80
72786;DHT22;60902;53.876;10.674;2023-05-10T15:11:33;13.80;68.80
72786;DHT22;60902;53.876;10.674;2023-05-10T15:11:44;13.80;68.80
72786;DHT22;60902;53.876;10.674;2023-05-10T15:11:55;13.80;68.90
72786;DHT22;60902;53.876;10.674;2023-05-10T15:12:06;13.80;68.90
72786;DHT22;60902;53.876;10.674;2023-05-10T15:12:17;13.80;68.80
72786;DHT22;60902;53.876;10.674;2023-05-10T15:12:28;13.80;68.90
72786;DHT22;60902;53.876;10.674;2023-05-10T15:12:40;13.80;68.80
72786;DHT22;60902;53.876;10.674;2023-05-10T15:12:50;13.80;68.80
72786;DHT22;60902;53.876;10.674;2023-05-10T15:13:02;13.80;68.80
72786;DHT22;60902;53.876;10.674;2023-05-10T15:13:13;13.80;68.90
72786;DHT22;60902;53.876;10.674;2023-05-10T15:13:24;13.80;68.80
72786;DHT22;60902;53.876;10.674;2023-05-10T15:13:36;13.80;68.80
72786;DHT22;60902;53.876;10.674;2023-05-10T15:13:47;13.80;68.80
72786;DHT22;60902;53.876;10.674;2023-05-10T15:13:58;13.80;68.80
72786;DHT22;60902;53.876;10.674;2023-05-10T15:14:09;13.80;68.80
72786;DHT22;60902;53.876;10.674;2023-05-10T15:14:21;13.80;68.80
72786;DHT22;60902;53.876;10.674;2023-05-10T15:14:32;13.80;68.80
72786;DHT22;60902;53.876;10.674;2023-05-10T15:14:43;13.80;68.80
72786;DHT22;60902;53.876;10.674;2023-05-10T15:14:54;13.80;68.80
72786;DHT22;60902;53.876;10.674;2023-05-10T15:15:06;13.80;68.80
72786;DHT22;60902;53.876;10.674;2023-05-10T15:15:18;13.80;68.80
72786;DHT22;60902;53.876;10.674;2023-05-10T15:15:29;13.80;68.80
72786;DHT22;60902;53.876;10.674;2023-05-10T15:15:40;13.80;68.80
72786;DHT22;60902;53.876;10.674;2023-05-10T15:15:51;13.80;68.80
72786;DHT22;60902;53.876;10.674;2023-05-10T15:16:02;13.80;68.80
72786;DHT22;60902;53.876;10.674;2023-05-10T15:16:13;13.80;68.80
72786;DHT22;60902;53.876;10.674;2023-05-10T15:16:26;13.80;68.80
72786;DHT22;60902;53.876;10.674;2023-05-10T15:16:36;13.80;68.70
72786;DHT22;60902;53.876;10.674;2023-05-10T15:16:47;13.80;68.70
72786;DHT22;60902;53.876;10.674;2023-05-10T15:16:58;13.80;68.70
72786;DHT22;60902;53.876;10.674;2023-05-10T15:17:09;13.80;68.70
72786;DHT22;60902;53.876;10.674;2023-05-10T15:17:20;13.80;68.70
72786;DHT22;60902;53.876;10.674;2023-05-10T15:17:32;13.80;68.70
72786;DHT22;60902;53.876;10.674;2023-05-10T15:17:43;13.80;68.70
72786;DHT22;60902;53.876;10.674;2023-05-10T15:17:54;13.80;68.70
72786;DHT22;60902;53.876;10.674;2023-05-10T15:18:05;13.80;68.70
72786;DHT22;60902;53.876;10.674;2023-05-10T15:18:16;13.80;68.70
72786;DHT22;60902;53.876;10.674;2023-05-10T15:18:27;13.80;68.70
72786;DHT22;60902;53.876;10.674;2023-05-10T15:18:38;13.80;68.70
72786;DHT22;60902;53.876;10.674;2023-05-10T15:18:50;13.80;68.70
72786;DHT22;60902;53.876;10.674;2023-05-10T15:19:01;13.80;68.70
72786;DHT22;60902;53.876;10.674;2023-05-10T15:19:12;13.80;68.70
72786;DHT22;60902;53.876;10.674;2023-05-10T15:19:23;13.80;68.70
72786;DHT22;60902;53.876;10.674;2023-05-10T15:19:33;13.80;68.70
72786;DHT22;60902;53.876;10.674;2023-05-10T15:19:44;13.80;68.70
72786;DHT22;60902;53.876;10.674;2023-05-10T15:19:56;13.80;68.70
72786;DHT22;60902;53.876;10.674;2023-05-10T15:20:07;13.80;68.70
72786;DHT22;60902;53.876;10.674;2023-05-10T15:20:20;13.80;68.70
72786;DHT22;60902;53.876;10.674;2023-05-10T15:20:30;13.80;68.70
72786;DHT22;60902;53.876;10.674;2023-05-10T15:20:41;13.80;68.70
72786;DHT22;60902;53.876;10.674;2023-05-10T15:20:52;13.80;68.70
72786;DHT22;60902;53.876;10.674;2023-05-10T15:21:03;13.80;68.70
72786;DHT22;60902;53.876;10.674;2023-05-10T15:21:15;13.80;68.70
72786;DHT22;60902;53.876;10.674;2023-05-10T15:21:26;13.80;68.70
72786;DHT22;60902;53.876;10.674;2023-05-10T15:21:39;13.70;68.60
72786;DHT22;60902;53.876;10.674;2023-05-10T15:21:52;13.80;68.70
72786;DHT22;60902;53.876;10.674;2023-05-10T15:22:04;13.80;68.70
72786;DHT22;60902;53.876;10.674;2023-05-10T15:22:15;13.80;68.70